sensor_id;sensor_type;location;lat;lon;timestamp;temperature;humidity
27162;DHT22;54464;50.558;9.704;2023-08-17T00:01:26;17.40;99.90
27162;DHT22;54464;50.558;9.704;2023-08-17T00:03:52;17.30;99.90
27162;DHT22;54464;50.558;9.704;2023-08-17T00:06:20;17.80;99.90
27162;DHT22;54464;50.558;9.704;2023-08-17T00:08:45;17.40;99.90
27162;DHT22;54464;50.558;9.704;2023-08-17T00:11:11;17.60;99.90
27162;DHT22;54464;50.558;9.704;2023-08-17T00:13:36;17.30;99.90
27162;DHT22;54464;50.558;9.704;2023-08-17T00:16:02;17.50;99.90
27162;DHT22;54464;50.558;9.704;2023-08-17T00:18:28;17.30;99.90
27162;DHT22;54464;50.558;9.704;2023-08-17T00:20:53;17.40;99.90
27162;DHT22;54464;50.558;9.704;2023-08-17T00:23:19;17.70;99.90
27162;DHT22;54464;50.558;9.704;2023-08-17T00:25:46;17.60;99.90
27162;DHT22;54464;50.558;9.704;2023-08-17T00:28:13;18.00;99.90
27162;DHT22;54464;50.558;9.704;2023-08-17T00:30:39;17.60;99.90
27162;DHT22;54464;50.558;9.704;2023-08-17T00:33:05;17.50;99.90
27162;DHT22;54464;50.558;9.704;2023-08-17T00:35:30;17.50;99.90
27162;DHT22;54464;50.558;9.704;2023-08-17T00:37:56;17.60;99.90
27162;DHT22;54464;50.558;9.704;2023-08-17T00:40:22;17.70;99.90
27162;DHT22;54464;50.558;9.704;2023-08-17T00:42:47;17.80;99.90
27162;DHT22;54464;50.558;9.704;2023-08-17T00:45:13;17.60;99.90
27162;DHT22;54464;50.558;9.704;2023-08-17T00:47:38;17.70;99.90
27162;DHT22;54464;50.558;9.704;2023-08-17T00:50:05;17.70;99.90
27162;DHT22;54464;50.558;9.704;2023-08-17T00:52:32;17.80;99.90
27162;DHT22;54464;50.558;9.704;2023-08-17T00:55:00;17.90;99.90
27162;DHT22;54464;50.558;9.704;2023-08-17T00:57:26;18.00;99.90
27162;DHT22;54464;50.558;9.704;2023-08-17T00:59:52;18.00;99.90
27162;DHT22;54464;50.558;9.704;2023-08-17T01:02:19;18.00;99.90
27162;DHT22;54464;50.558;9.704;2023-08-17T01:04:44;18.00;99.90
27162;DHT22;54464;50.558;9.704;2023-08-17T01:07:10;18.00;99.90
27162;DHT22;54464;50.558;9.704;2023-08-17T01:09:36;17.90;99.90
27162;DHT22;54464;50.558;9.704;2023-08-17T01:12:30;18.10;99.90
27162;DHT22;54464;50.558;9.704;2023-08-17T01:15:00;18.00;99.90
27162;DHT22;54464;50.558;9.704;2023-08-17T01:17:34;18.00;99.90
27162;DHT22;54464;50.558;9.704;2023-08-17T01:20:02;18.00;99.90
27162;DHT22;54464;50.558;9.704;2023-08-17T01:22:30;17.90;99.90
27162;DHT22;54464;50.558;9.704;2023-08-17T01:24:58;17.90;99.90
27162;DHT22;54464;50.558;9.704;2023-08-17T01:27:24;17.80;99.90
27162;DHT22;54464;50.558;9.704;2023-08-17T01:29:51;17.80;99.90
27162;DHT22;54464;50.558;9.704;2023-08-17T01:32:46;17.80;99.90
27162;DHT22;54464;50.558;9.704;2023-08-17T01:35:19;17.80;99.90
27162;DHT22;54464;50.558;9.704;2023-08-17T01:37:47;17.80;99.90
27162;DHT22;54464;50.558;9.704;2023-08-17T01:40:15;17.90;99.90
27162;DHT22;54464;50.558;9.704;2023-08-17T01:42:42;17.70;99.90
27162;DHT22;54464;50.558;9.704;2023-08-17T01:45:09;17.60;99.90
27162;DHT22;54464;50.558;9.704;2023-08-17T01:47:35;17.60;99.90
27162;DHT22;54464;50.558;9.704;2023-08-17T01:50:01;17.70;99.90
27162;DHT22;54464;50.558;9.704;2023-08-17T01:52:27;17.70;99.90
27162;DHT22;54464;50.558;9.704;2023-08-17T01:54:53;17.70;99.90
27162;DHT22;54464;50.558;9.704;2023-08-17T01:57:19;17.80;99.90
27162;DHT22;54464;50.558;9.704;2023-08-17T01:59:45;17.80;99.90
27162;DHT22;54464;50.558;9.704;2023-08-17T02:02:11;17.70;99.90
27162;DHT22;54464;50.558;9.704;2023-08-17T02:04:40;17.70;99.90
27162;DHT22;54464;50.558;9.704;2023-08-17T02:07:05;17.70;99.90
27162;DHT22;54464;50.558;9.704;2023-08-17T02:09:31;17.70;99.90
27162;DHT22;54464;50.558;9.704;2023-08-17T02:11:57;17.70;99.90
27162;DHT22;54464;50.558;9.704;2023-08-17T02:14:22;17.80;99.90
27162;DHT22;54464;50.558;9.704;2023-08-17T02:16:48;17.70;99.90
27162;DHT22;54464;50.558;9.704;2023-08-17T02:19:14;17.80;99.90
27162;DHT22;54464;50.558;9.704;2023-08-17T02:21:40;17.60;99.90
27162;DHT22;54464;50.558;9.704;2023-08-17T02:24:06;17.50;99.90
27162;DHT22;54464;50.558;9.704;2023-08-17T02:26:31;17.40;99.90
27162;DHT22;54464;50.558;9.704;2023-08-17T02:28:57;17.10;99.90
27162;DHT22;54464;50.558;9.704;2023-08-17T02:31:22;16.90;99.90
27162;DHT22;54464;50.558;9.704;2023-08-17T02:33:48;16.90;99.90
27162;DHT22;54464;50.558;9.704;2023-08-17T02:36:14;16.80;99.90
27162;DHT22;54464;50.558;9.704;2023-08-17T02:38:39;16.70;99.90
27162;DHT22;54464;50.558;9.704;2023-08-17T02:41:05;17.00;99.90
27162;DHT22;54464;50.558;9.704;2023-08-17T02:43:31;16.80;99.90
27162;DHT22;54464;50.558;9.704;2023-08-17T02:45:56;16.90;99.90
27162;DHT22;54464;50.558;9.704;2023-08-17T02:48:22;16.80;99.90
27162;DHT22;54464;50.558;9.704;2023-08-17T02:50:47;16.70;99.90
27162;DHT22;54464;50.558;9.704;2023-08-17T02:53:13;16.70;99.90
27162;DHT22;54464;50.558;9.704;2023-08-17T02:55:38;16.90;99.90
27162;DHT22;54464;50.558;9.704;2023-08-17T02:58:04;16.80;99.90
27162;DHT22;54464;50.558;9.704;2023-08-17T03:00:30;16.80;99.90
27162;DHT22;54464;50.558;9.704;2023-08-17T03:02:55;16.80;99.90
27162;DHT22;54464;50.558;9.704;2023-08-17T03:05:21;16.80;99.90
27162;DHT22;54464;50.558;9.704;2023-08-17T03:07:46;16.70;99.90
27162;DHT22;54464;50.558;9.704;2023-08-17T03:10:12;16.60;99.90
27162;DHT22;54464;50.558;9.704;2023-08-17T03:12:38;16.50;99.90
27162;DHT22;54464;50.558;9.704;2023-08-17T03:15:05;16.60;99.90
27162;DHT22;54464;50.558;9.704;2023-08-17T03:17:31;16.50;99.90
27162;DHT22;54464;50.558;9.704;2023-08-17T03:19:56;16.50;99.90
27162;DHT22;54464;50.558;9.704;2023-08-17T03:22:24;16.60;99.90
27162;DHT22;54464;50.558;9.704;2023-08-17T03:24:50;16.60;99.90
27162;DHT22;54464;50.558;9.704;2023-08-17T03:27:15;16.60;99.90
27162;DHT22;54464;50.558;9.704;2023-08-17T03:29:41;16.60;99.90
27162;DHT22;54464;50.558;9.704;2023-08-17T03:32:07;16.60;99.90
27162;DHT22;54464;50.558;9.704;2023-08-17T03:34:32;16.70;99.90
27162;DHT22;54464;50.558;9.704;2023-08-17T03:36:58;16.80;99.90
27162;DHT22;54464;50.558;9.704;2023-08-17T03:39:23;16.80;99.90
27162;DHT22;54464;50.558;9.704;2023-08-17T03:41:49;16.80;99.90
27162;DHT22;54464;50.558;9.704;2023-08-17T03:44:14;16.90;99.90
27162;DHT22;54464;50.558;9.704;2023-08-17T03:46:41;16.90;99.90
27162;DHT22;54464;50.558;9.704;2023-08-17T03:49:07;17.00;99.90
27162;DHT22;54464;50.558;9.704;2023-08-17T03:51:32;17.00;99.90
27162;DHT22;54464;50.558;9.704;2023-08-17T03:53:58;16.90;99.90
27162;DHT22;54464;50.558;9.704;2023-08-17T03:56:23;16.90;99.90
27162;DHT22;54464;50.558;9.704;2023-08-17T03:58:50;16.90;99.90
27162;DHT22;54464;50.558;9.704;2023-08-17T04:01:15;17.00;99.90
27162;DHT22;54464;50.558;9.704;2023-08-17T04:03:41;16.90;99.90
27162;DHT22;54464;50.558;9.704;2023-08-17T04:06:07;16.90;99.90
27162;DHT22;54464;50.558;9.704;2023-08-17T04:08:36;16.90;99.90
27162;DHT22;54464;50.558;9.704;2023-08-17T04:11:03;16.80;99.90
27162;DHT22;54464;50.558;9.704;2023-08-17T04:13:28;16.80;99.90
27162;DHT22;54464;50.558;9.704;2023-08-17T04:15:54;16.90;99.90
27162;DHT22;54464;50.558;9.704;2023-08-17T04:18:19;16.70;99.90
27162;DHT22;54464;50.558;9.704;2023-08-17T04:20:45;16.70;99.90
27162;DHT22;54464;50.558;9.704;2023-08-17T04:23:10;16.70;99.90
27162;DHT22;54464;50.558;9.704;2023-08-17T04:25:36;16.70;99.90
27162;DHT22;54464;50.558;9.704;2023-08-17T04:28:05;16.70;99.90
27162;DHT22;54464;50.558;9.704;2023-08-17T04:30:33;16.70;99.90
27162;DHT22;54464;50.558;9.704;2023-08-17T04:32:59;16.70;99.90
27162;DHT22;54464;50.558;9.704;2023-08-17T04:35:24;16.70;99.90
27162;DHT22;54464;50.558;9.704;2023-08-17T04:37:50;16.60;99.90
27162;DHT22;54464;50.558;9.704;2023-08-17T04:40:15;16.70;99.90
27162;DHT22;54464;50.558;9.704;2023-08-17T04:42:41;16.70;99.90
27162;DHT22;54464;50.558;9.704;2023-08-17T04:45:07;16.80;99.90
27162;DHT22;54464;50.558;9.704;2023-08-17T04:47:33;16.90;99.90
27162;DHT22;54464;50.558;9.704;2023-08-17T04:50:02;16.90;99.90
27162;DHT22;54464;50.558;9.704;2023-08-17T04:52:30;17.00;99.90
27162;DHT22;54464;50.558;9.704;2023-08-17T04:54:55;17.00;99.90
27162;DHT22;54464;50.558;9.704;2023-08-17T04:57:21;17.00;99.90
27162;DHT22;54464;50.558;9.704;2023-08-17T04:59:46;17.10;99.90
27162;DHT22;54464;50.558;9.704;2023-08-17T05:02:15;17.10;99.90
27162;DHT22;54464;50.558;9.704;2023-08-17T05:04:41;17.10;99.90
27162;DHT22;54464;50.558;9.704;2023-08-17T05:07:07;17.10;99.90
27162;DHT22;54464;50.558;9.704;2023-08-17T05:09:33;17.30;99.90
27162;DHT22;54464;50.558;9.704;2023-08-17T05:11:58;17.30;99.90
27162;DHT22;54464;50.558;9.704;2023-08-17T05:14:24;17.30;99.90
27162;DHT22;54464;50.558;9.704;2023-08-17T05:16:50;17.30;99.90
27162;DHT22;54464;50.558;9.704;2023-08-17T05:19:15;17.30;99.90
27162;DHT22;54464;50.558;9.704;2023-08-17T05:21:41;17.40;99.90
27162;DHT22;54464;50.558;9.704;2023-08-17T05:24:06;17.50;99.90
27162;DHT22;54464;50.558;9.704;2023-08-17T05:26:32;17.20;99.90
27162;DHT22;54464;50.558;9.704;2023-08-17T05:28:58;16.90;99.90
27162;DHT22;54464;50.558;9.704;2023-08-17T05:31:23;16.80;99.90
27162;DHT22;54464;50.558;9.704;2023-08-17T05:33:49;16.90;99.90
27162;DHT22;54464;50.558;9.704;2023-08-17T05:36:14;17.10;99.90
27162;DHT22;54464;50.558;9.704;2023-08-17T05:38:40;17.30;99.90
27162;DHT22;54464;50.558;9.704;2023-08-17T05:41:05;17.30;99.90
27162;DHT22;54464;50.558;9.704;2023-08-17T05:43:31;17.20;99.90
27162;DHT22;54464;50.558;9.704;2023-08-17T05:45:57;16.90;99.90
27162;DHT22;54464;50.558;9.704;2023-08-17T05:48:26;16.70;99.90
27162;DHT22;54464;50.558;9.704;2023-08-17T05:50:52;16.80;99.90
27162;DHT22;54464;50.558;9.704;2023-08-17T05:53:18;17.00;99.90
27162;DHT22;54464;50.558;9.704;2023-08-17T05:55:43;17.10;99.90
27162;DHT22;54464;50.558;9.704;2023-08-17T05:58:09;17.10;99.90
27162;DHT22;54464;50.558;9.704;2023-08-17T06:00:34;17.30;99.90
27162;DHT22;54464;50.558;9.704;2023-08-17T06:03:00;17.50;99.90
27162;DHT22;54464;50.558;9.704;2023-08-17T06:05:29;17.50;99.90
27162;DHT22;54464;50.558;9.704;2023-08-17T06:07:56;17.50;99.90
27162;DHT22;54464;50.558;9.704;2023-08-17T06:10:22;17.70;99.90
27162;DHT22;54464;50.558;9.704;2023-08-17T06:12:55;17.60;99.90
27162;DHT22;54464;50.558;9.704;2023-08-17T06:15:21;17.60;99.90
27162;DHT22;54464;50.558;9.704;2023-08-17T06:17:47;17.60;99.90
27162;DHT22;54464;50.558;9.704;2023-08-17T06:20:15;17.70;99.90
27162;DHT22;54464;50.558;9.704;2023-08-17T06:22:41;17.80;99.90
27162;DHT22;54464;50.558;9.704;2023-08-17T06:25:07;17.90;99.90
27162;DHT22;54464;50.558;9.704;2023-08-17T06:27:34;17.70;99.90
27162;DHT22;54464;50.558;9.704;2023-08-17T06:30:00;17.80;99.90
27162;DHT22;54464;50.558;9.704;2023-08-17T06:32:26;17.80;99.90
27162;DHT22;54464;50.558;9.704;2023-08-17T06:34:51;17.60;99.90
27162;DHT22;54464;50.558;9.704;2023-08-17T06:37:19;17.50;99.90
27162;DHT22;54464;50.558;9.704;2023-08-17T06:39:45;17.60;99.90
27162;DHT22;54464;50.558;9.704;2023-08-17T06:42:10;18.00;99.90
27162;DHT22;54464;50.558;9.704;2023-08-17T06:44:36;17.90;99.90
27162;DHT22;54464;50.558;9.704;2023-08-17T06:47:01;18.10;99.90
27162;DHT22;54464;50.558;9.704;2023-08-17T06:49:27;18.00;99.90
27162;DHT22;54464;50.558;9.704;2023-08-17T06:51:53;18.10;99.90
27162;DHT22;54464;50.558;9.704;2023-08-17T06:54:18;18.30;99.90
27162;DHT22;54464;50.558;9.704;2023-08-17T06:56:44;18.20;99.90
27162;DHT22;54464;50.558;9.704;2023-08-17T06:59:10;18.30;99.90
27162;DHT22;54464;50.558;9.704;2023-08-17T07:01:35;18.50;99.90
27162;DHT22;54464;50.558;9.704;2023-08-17T07:04:01;18.70;99.90
27162;DHT22;54464;50.558;9.704;2023-08-17T07:06:27;18.70;99.90
27162;DHT22;54464;50.558;9.704;2023-08-17T07:08:54;18.70;99.90
27162;DHT22;54464;50.558;9.704;2023-08-17T07:11:19;18.90;99.90
27162;DHT22;54464;50.558;9.704;2023-08-17T07:13:45;18.90;99.90
27162;DHT22;54464;50.558;9.704;2023-08-17T07:16:11;19.00;99.90
27162;DHT22;54464;50.558;9.704;2023-08-17T07:18:36;19.00;99.90
27162;DHT22;54464;50.558;9.704;2023-08-17T07:21:02;19.00;99.90
27162;DHT22;54464;50.558;9.704;2023-08-17T07:23:27;18.90;99.90
27162;DHT22;54464;50.558;9.704;2023-08-17T07:25:53;18.90;99.90
27162;DHT22;54464;50.558;9.704;2023-08-17T07:28:19;19.00;99.90
27162;DHT22;54464;50.558;9.704;2023-08-17T07:30:44;19.10;99.90
27162;DHT22;54464;50.558;9.704;2023-08-17T07:33:10;19.20;99.90
27162;DHT22;54464;50.558;9.704;2023-08-17T07:35:36;19.30;99.90
27162;DHT22;54464;50.558;9.704;2023-08-17T07:38:01;19.50;99.90
27162;DHT22;54464;50.558;9.704;2023-08-17T07:40:27;19.50;99.90
27162;DHT22;54464;50.558;9.704;2023-08-17T07:42:52;19.60;99.90
27162;DHT22;54464;50.558;9.704;2023-08-17T07:45:18;19.50;99.90
27162;DHT22;54464;50.558;9.704;2023-08-17T07:47:44;19.00;99.90
27162;DHT22;54464;50.558;9.704;2023-08-17T07:50:09;19.00;99.90
27162;DHT22;54464;50.558;9.704;2023-08-17T07:52:35;18.80;99.90
27162;DHT22;54464;50.558;9.704;2023-08-17T07:55:00;18.90;99.90
27162;DHT22;54464;50.558;9.704;2023-08-17T07:57:26;19.10;99.90
27162;DHT22;54464;50.558;9.704;2023-08-17T07:59:52;19.50;99.90
27162;DHT22;54464;50.558;9.704;2023-08-17T08:02:19;19.80;99.90
27162;DHT22;54464;50.558;9.704;2023-08-17T08:04:44;19.90;99.90
27162;DHT22;54464;50.558;9.704;2023-08-17T08:07:10;20.10;99.90
27162;DHT22;54464;50.558;9.704;2023-08-17T08:09:36;20.00;99.90
27162;DHT22;54464;50.558;9.704;2023-08-17T08:12:02;20.00;99.90
27162;DHT22;54464;50.558;9.704;2023-08-17T08:14:27;20.30;99.90
27162;DHT22;54464;50.558;9.704;2023-08-17T08:16:53;20.00;99.90
27162;DHT22;54464;50.558;9.704;2023-08-17T08:19:19;19.60;99.90
27162;DHT22;54464;50.558;9.704;2023-08-17T08:24:13;19.70;99.90
27162;DHT22;54464;50.558;9.704;2023-08-17T08:26:38;19.90;99.90
27162;DHT22;54464;50.558;9.704;2023-08-17T08:29:04;20.10;99.90
27162;DHT22;54464;50.558;9.704;2023-08-17T08:31:29;20.00;99.90
27162;DHT22;54464;50.558;9.704;2023-08-17T08:33:55;20.10;99.90
27162;DHT22;54464;50.558;9.704;2023-08-17T08:36:21;20.10;99.90
27162;DHT22;54464;50.558;9.704;2023-08-17T08:38:47;20.40;99.90
27162;DHT22;54464;50.558;9.704;2023-08-17T08:41:12;20.30;99.90
27162;DHT22;54464;50.558;9.704;2023-08-17T08:43:38;20.60;99.90
27162;DHT22;54464;50.558;9.704;2023-08-17T08:46:04;21.00;99.90
27162;DHT22;54464;50.558;9.704;2023-08-17T08:48:31;21.00;99.90
27162;DHT22;54464;50.558;9.704;2023-08-17T08:50:59;21.30;99.90
27162;DHT22;54464;50.558;9.704;2023-08-17T08:53:32;21.60;99.90
27162;DHT22;54464;50.558;9.704;2023-08-17T08:56:01;21.50;99.90
27162;DHT22;54464;50.558;9.704;2023-08-17T08:58:27;21.40;99.90
27162;DHT22;54464;50.558;9.704;2023-08-17T09:00:54;21.30;99.90
27162;DHT22;54464;50.558;9.704;2023-08-17T09:03:21;21.50;99.90
27162;DHT22;54464;50.558;9.704;2023-08-17T09:05:48;21.50;99.90
27162;DHT22;54464;50.558;9.704;2023-08-17T09:08:15;21.80;99.90
27162;DHT22;54464;50.558;9.704;2023-08-17T09:10:41;21.80;99.90
27162;DHT22;54464;50.558;9.704;2023-08-17T09:13:07;21.60;99.90
27162;DHT22;54464;50.558;9.704;2023-08-17T09:15:34;21.80;99.90
27162;DHT22;54464;50.558;9.704;2023-08-17T09:17:59;21.80;99.90
27162;DHT22;54464;50.558;9.704;2023-08-17T09:20:42;21.70;99.90
27162;DHT22;54464;50.558;9.704;2023-08-17T09:23:21;21.20;99.90
27162;DHT22;54464;50.558;9.704;2023-08-17T09:25:48;21.00;99.90
27162;DHT22;54464;50.558;9.704;2023-08-17T09:28:17;21.40;99.90
27162;DHT22;54464;50.558;9.704;2023-08-17T09:30:59;21.80;99.90
27162;DHT22;54464;50.558;9.704;2023-08-17T09:33:27;21.80;99.90
27162;DHT22;54464;50.558;9.704;2023-08-17T09:35:54;22.10;99.90
27162;DHT22;54464;50.558;9.704;2023-08-17T09:38:20;22.10;99.90
27162;DHT22;54464;50.558;9.704;2023-08-17T09:40:47;22.00;99.90
27162;DHT22;54464;50.558;9.704;2023-08-17T09:43:14;21.70;99.90
27162;DHT22;54464;50.558;9.704;2023-08-17T09:45:40;21.80;99.90
27162;DHT22;54464;50.558;9.704;2023-08-17T09:48:07;21.70;99.90
27162;DHT22;54464;50.558;9.704;2023-08-17T09:50:34;21.50;99.90
27162;DHT22;54464;50.558;9.704;2023-08-17T09:53:00;21.50;99.90
27162;DHT22;54464;50.558;9.704;2023-08-17T09:55:26;21.90;99.90
27162;DHT22;54464;50.558;9.704;2023-08-17T09:57:52;22.00;99.90
27162;DHT22;54464;50.558;9.704;2023-08-17T10:00:19;22.10;99.90
27162;DHT22;54464;50.558;9.704;2023-08-17T10:02:45;21.40;99.90
27162;DHT22;54464;50.558;9.704;2023-08-17T10:05:17;22.20;99.90
27162;DHT22;54464;50.558;9.704;2023-08-17T10:07:53;22.10;99.90
27162;DHT22;54464;50.558;9.704;2023-08-17T10:10:22;22.00;99.90
27162;DHT22;54464;50.558;9.704;2023-08-17T10:13:09;22.50;99.90
27162;DHT22;54464;50.558;9.704;2023-08-17T10:16:02;22.30;99.90
27162;DHT22;54464;50.558;9.704;2023-08-17T10:21:06;22.90;99.90
27162;DHT22;54464;50.558;9.704;2023-08-17T10:23:32;22.90;99.90
27162;DHT22;54464;50.558;9.704;2023-08-17T10:26:00;22.90;99.90
27162;DHT22;54464;50.558;9.704;2023-08-17T10:28:28;23.30;99.90
27162;DHT22;54464;50.558;9.704;2023-08-17T10:30:55;23.70;99.90
27162;DHT22;54464;50.558;9.704;2023-08-17T10:33:21;22.90;99.90
27162;DHT22;54464;50.558;9.704;2023-08-17T10:35:46;23.10;99.90
27162;DHT22;54464;50.558;9.704;2023-08-17T10:38:13;22.40;99.90
27162;DHT22;54464;50.558;9.704;2023-08-17T10:40:41;22.20;99.90
27162;DHT22;54464;50.558;9.704;2023-08-17T10:43:07;22.70;99.90
27162;DHT22;54464;50.558;9.704;2023-08-17T10:45:35;22.70;99.90
27162;DHT22;54464;50.558;9.704;2023-08-17T10:50:38;22.90;99.90
27162;DHT22;54464;50.558;9.704;2023-08-17T10:53:08;23.00;99.90
27162;DHT22;54464;50.558;9.704;2023-08-17T10:55:39;23.50;99.90
27162;DHT22;54464;50.558;9.704;2023-08-17T10:58:05;24.00;99.90
27162;DHT22;54464;50.558;9.704;2023-08-17T11:00:37;24.40;99.90
27162;DHT22;54464;50.558;9.704;2023-08-17T11:03:08;24.40;99.90
27162;DHT22;54464;50.558;9.704;2023-08-17T11:05:55;24.80;99.90
27162;DHT22;54464;50.558;9.704;2023-08-17T11:08:29;25.10;99.90
27162;DHT22;54464;50.558;9.704;2023-08-17T11:11:31;25.10;99.90
27162;DHT22;54464;50.558;9.704;2023-08-17T11:13:50;25.40;99.90
27162;DHT22;54464;50.558;9.704;2023-08-17T11:16:18;25.90;99.90
27162;DHT22;54464;50.558;9.704;2023-08-17T11:18:48;25.80;99.90
27162;DHT22;54464;50.558;9.704;2023-08-17T11:21:15;26.00;99.90
27162;DHT22;54464;50.558;9.704;2023-08-17T11:23:40;26.30;99.90
27162;DHT22;54464;50.558;9.704;2023-08-17T11:26:07;26.30;99.90
27162;DHT22;54464;50.558;9.704;2023-08-17T11:28:34;26.40;99.90
27162;DHT22;54464;50.558;9.704;2023-08-17T11:31:12;26.40;99.90
27162;DHT22;54464;50.558;9.704;2023-08-17T11:33:39;26.70;99.90
27162;DHT22;54464;50.558;9.704;2023-08-17T11:36:06;27.30;99.90
27162;DHT22;54464;50.558;9.704;2023-08-17T11:38:34;27.60;99.90
27162;DHT22;54464;50.558;9.704;2023-08-17T11:41:00;27.90;99.90
27162;DHT22;54464;50.558;9.704;2023-08-17T11:43:27;28.10;99.90
27162;DHT22;54464;50.558;9.704;2023-08-17T11:45:55;27.70;99.90
27162;DHT22;54464;50.558;9.704;2023-08-17T11:48:20;27.60;99.90
27162;DHT22;54464;50.558;9.704;2023-08-17T11:50:46;27.50;99.90
27162;DHT22;54464;50.558;9.704;2023-08-17T11:53:11;27.50;99.90
27162;DHT22;54464;50.558;9.704;2023-08-17T11:55:37;26.90;99.90
27162;DHT22;54464;50.558;9.704;2023-08-17T11:58:03;26.90;99.90
27162;DHT22;54464;50.558;9.704;2023-08-17T12:00:35;27.60;99.90
27162;DHT22;54464;50.558;9.704;2023-08-17T12:03:03;28.00;99.90
27162;DHT22;54464;50.558;9.704;2023-08-17T12:05:31;28.40;99.90
27162;DHT22;54464;50.558;9.704;2023-08-17T12:07:57;28.40;99.90
27162;DHT22;54464;50.558;9.704;2023-08-17T12:10:24;28.30;99.90
27162;DHT22;54464;50.558;9.704;2023-08-17T12:12:52;28.60;99.90
27162;DHT22;54464;50.558;9.704;2023-08-17T12:15:18;28.60;99.90
27162;DHT22;54464;50.558;9.704;2023-08-17T12:17:48;28.60;99.90
27162;DHT22;54464;50.558;9.704;2023-08-17T12:20:20;28.80;99.90
27162;DHT22;54464;50.558;9.704;2023-08-17T12:22:47;28.80;99.90
27162;DHT22;54464;50.558;9.704;2023-08-17T12:25:13;29.10;99.90
27162;DHT22;54464;50.558;9.704;2023-08-17T12:27:39;29.90;99.90
27162;DHT22;54464;50.558;9.704;2023-08-17T12:30:12;30.30;99.90
27162;DHT22;54464;50.558;9.704;2023-08-17T12:32:37;31.10;99.90
27162;DHT22;54464;50.558;9.704;2023-08-17T12:35:03;32.40;99.90
27162;DHT22;54464;50.558;9.704;2023-08-17T12:37:29;32.30;99.90
27162;DHT22;54464;50.558;9.704;2023-08-17T12:39:55;32.20;99.90
27162;DHT22;54464;50.558;9.704;2023-08-17T12:42:20;31.70;99.90
27162;DHT22;54464;50.558;9.704;2023-08-17T12:44:46;30.60;99.90
27162;DHT22;54464;50.558;9.704;2023-08-17T12:47:11;31.20;99.90
27162;DHT22;54464;50.558;9.704;2023-08-17T12:49:37;32.20;99.90
27162;DHT22;54464;50.558;9.704;2023-08-17T12:52:02;33.40;99.90
27162;DHT22;54464;50.558;9.704;2023-08-17T12:54:28;33.00;99.90
27162;DHT22;54464;50.558;9.704;2023-08-17T12:56:54;33.70;99.90
27162;DHT22;54464;50.558;9.704;2023-08-17T12:59:19;33.70;99.80
27162;DHT22;54464;50.558;9.704;2023-08-17T13:01:45;31.70;99.90
27162;DHT22;54464;50.558;9.704;2023-08-17T13:04:10;31.00;99.90
27162;DHT22;54464;50.558;9.704;2023-08-17T13:06:36;31.40;99.90
27162;DHT22;54464;50.558;9.704;2023-08-17T13:09:01;30.50;99.90
27162;DHT22;54464;50.558;9.704;2023-08-17T13:11:27;31.50;99.90
27162;DHT22;54464;50.558;9.704;2023-08-17T13:13:53;31.50;99.90
27162;DHT22;54464;50.558;9.704;2023-08-17T13:16:21;32.30;99.90
27162;DHT22;54464;50.558;9.704;2023-08-17T13:18:48;33.90;99.90
27162;DHT22;54464;50.558;9.704;2023-08-17T13:21:16;34.40;99.20
27162;DHT22;54464;50.558;9.704;2023-08-17T13:23:46;35.00;99.10
27162;DHT22;54464;50.558;9.704;2023-08-17T13:26:11;36.60;96.60
27162;DHT22;54464;50.558;9.704;2023-08-17T13:28:37;36.00;94.90
27162;DHT22;54464;50.558;9.704;2023-08-17T13:31:09;35.10;96.20
27162;DHT22;54464;50.558;9.704;2023-08-17T13:33:34;36.00;95.90
27162;DHT22;54464;50.558;9.704;2023-08-17T13:36:00;36.10;95.80
27162;DHT22;54464;50.558;9.704;2023-08-17T13:38:26;34.80;96.80
27162;DHT22;54464;50.558;9.704;2023-08-17T13:40:51;34.10;95.80
27162;DHT22;54464;50.558;9.704;2023-08-17T13:43:17;32.50;97.90
27162;DHT22;54464;50.558;9.704;2023-08-17T13:45:42;33.90;99.60
27162;DHT22;54464;50.558;9.704;2023-08-17T13:48:08;33.20;97.70
27162;DHT22;54464;50.558;9.704;2023-08-17T13:50:36;32.70;98.80
27162;DHT22;54464;50.558;9.704;2023-08-17T13:53:02;30.90;97.80
27162;DHT22;54464;50.558;9.704;2023-08-17T13:55:28;30.40;99.90
27162;DHT22;54464;50.558;9.704;2023-08-17T13:57:54;30.80;99.90
27162;DHT22;54464;50.558;9.704;2023-08-17T14:00:24;32.00;99.90
27162;DHT22;54464;50.558;9.704;2023-08-17T14:02:49;30.40;99.80
27162;DHT22;54464;50.558;9.704;2023-08-17T14:05:15;30.90;99.70
27162;DHT22;54464;50.558;9.704;2023-08-17T14:07:40;31.20;99.40
27162;DHT22;54464;50.558;9.704;2023-08-17T14:10:06;32.70;99.00
27162;DHT22;54464;50.558;9.704;2023-08-17T14:12:32;32.40;99.90
27162;DHT22;54464;50.558;9.704;2023-08-17T14:14:59;33.60;99.60
27162;DHT22;54464;50.558;9.704;2023-08-17T14:17:24;33.20;97.70
27162;DHT22;54464;50.558;9.704;2023-08-17T14:19:58;33.30;99.40
27162;DHT22;54464;50.558;9.704;2023-08-17T14:22:25;33.50;98.10
27162;DHT22;54464;50.558;9.704;2023-08-17T14:24:50;35.10;97.60
27162;DHT22;54464;50.558;9.704;2023-08-17T14:27:16;35.60;94.70
27162;DHT22;54464;50.558;9.704;2023-08-17T14:29:41;34.60;95.30
27162;DHT22;54464;50.558;9.704;2023-08-17T14:32:07;35.10;95.90
27162;DHT22;54464;50.558;9.704;2023-08-17T14:34:32;33.50;94.00
27162;DHT22;54464;50.558;9.704;2023-08-17T14:36:58;33.70;96.50
27162;DHT22;54464;50.558;9.704;2023-08-17T14:39:23;33.20;96.10
27162;DHT22;54464;50.558;9.704;2023-08-17T14:41:49;33.20;96.60
27162;DHT22;54464;50.558;9.704;2023-08-17T14:44:15;32.50;96.50
27162;DHT22;54464;50.558;9.704;2023-08-17T14:46:42;31.90;96.20
27162;DHT22;54464;50.558;9.704;2023-08-17T14:49:08;31.90;98.10
27162;DHT22;54464;50.558;9.704;2023-08-17T14:51:38;32.30;98.30
27162;DHT22;54464;50.558;9.704;2023-08-17T14:54:05;32.70;96.40
27162;DHT22;54464;50.558;9.704;2023-08-17T14:56:30;32.70;95.70
27162;DHT22;54464;50.558;9.704;2023-08-17T14:58:56;31.40;96.00
27162;DHT22;54464;50.558;9.704;2023-08-17T15:01:21;31.20;96.80
27162;DHT22;54464;50.558;9.704;2023-08-17T15:03:47;31.10;97.90
27162;DHT22;54464;50.558;9.704;2023-08-17T15:06:12;31.00;98.00
27162;DHT22;54464;50.558;9.704;2023-08-17T15:08:38;30.70;98.40
27162;DHT22;54464;50.558;9.704;2023-08-17T15:11:04;30.70;98.40
27162;DHT22;54464;50.558;9.704;2023-08-17T15:13:29;30.70;98.30
27162;DHT22;54464;50.558;9.704;2023-08-17T15:15:55;29.90;99.40
27162;DHT22;54464;50.558;9.704;2023-08-17T15:18:22;29.80;99.90
27162;DHT22;54464;50.558;9.704;2023-08-17T15:20:48;29.70;99.90
27162;DHT22;54464;50.558;9.704;2023-08-17T15:23:13;30.10;99.60
27162;DHT22;54464;50.558;9.704;2023-08-17T15:25:39;30.60;99.90
27162;DHT22;54464;50.558;9.704;2023-08-17T15:28:04;30.40;99.90
27162;DHT22;54464;50.558;9.704;2023-08-17T15:30:30;29.70;99.60
27162;DHT22;54464;50.558;9.704;2023-08-17T15:32:56;29.30;99.90
27162;DHT22;54464;50.558;9.704;2023-08-17T15:35:21;29.90;99.90